createdAt,value
2022-08-20T00:01:01.578Z,99263.69
2022-08-20T00:06:03.426Z,99267.50
2022-08-20T00:10:56.630Z,99263.66
2022-08-20T00:15:48.315Z,99258.69
2022-08-20T00:20:45.376Z,99245.56
2022-08-20T00:25:37.239Z,99245.88
2022-08-20T00:30:30.597Z,99251.56
2022-08-20T00:35:26.241Z,99243.06
2022-08-20T00:40:22.431Z,99230.19
2022-08-20T00:45:16.598Z,99227.97
2022-08-20T00:50:10.575Z,99233.34
2022-08-20T00:55:04.712Z,99227.28
2022-08-20T00:59:57.954Z,99226.13
2022-08-20T01:04:54.772Z,99227.69
2022-08-20T01:09:58.231Z,99224.66
2022-08-20T01:14:50.406Z,99222.44
2022-08-20T01:19:49.184Z,99204.94
2022-08-20T01:24:43.454Z,99204.63
2022-08-20T01:29:39.794Z,99210.34
2022-08-20T01:34:31.873Z,99205.38
2022-08-20T01:39:31.765Z,99208.88
2022-08-20T01:44:24.995Z,99208.22
2022-08-20T01:49:23.439Z,99208.44
2022-08-20T01:54:15.957Z,99194.75
2022-08-20T01:59:07.834Z,99192.81
2022-08-20T02:04:02.537Z,99196.97
2022-08-20T02:09:02.581Z,99195.81
2022-08-20T02:13:55.295Z,99191.66
2022-08-20T02:18:48.642Z,99184.00
2022-08-20T02:23:40.330Z,99173.03
2022-08-20T02:28:32.286Z,99171.63
2022-08-20T02:33:24.479Z,99171.63
2022-08-20T02:38:16.930Z,99167.84
2022-08-20T02:43:08.814Z,99164.84
2022-08-20T02:48:00.410Z,99162.13
2022-08-20T02:52:53.485Z,99152.94
2022-08-20T02:57:45.604Z,99161.13
2022-08-20T03:02:37.468Z,99151.63
2022-08-20T03:07:29.300Z,99159.56
2022-08-20T03:12:21.094Z,99144.91
2022-08-20T03:17:12.801Z,99153.19
2022-08-20T03:22:04.936Z,99157.69
2022-08-20T03:26:56.991Z,99153.94
2022-08-20T03:31:48.769Z,99145.00
2022-08-20T03:36:40.550Z,99129.50
2022-08-20T03:41:32.476Z,99136.41
2022-08-20T03:46:25.094Z,99140.25
2022-08-20T03:51:17.396Z,99122.81
2022-08-20T03:56:09.141Z,99136.22
2022-08-20T04:01:01.311Z,99129.38
2022-08-20T04:05:53.954Z,99131.31
2022-08-20T04:10:47.557Z,99132.38
2022-08-20T04:15:39.538Z,99138.94
2022-08-20T04:20:31.528Z,99139.13
2022-08-20T04:25:23.994Z,99135.56
2022-08-20T04:30:16.480Z,99141.81
2022-08-20T04:35:11.790Z,99133.84
2022-08-20T04:40:27.916Z,99129.97
2022-08-20T04:45:20.023Z,99150.72
2022-08-20T04:50:12.877Z,99147.66
2022-08-20T04:55:05.961Z,99144.88
2022-08-20T04:59:59.483Z,99153.06
2022-08-20T05:04:51.353Z,99162.91
2022-08-20T05:09:44.041Z,99174.13
2022-08-20T05:14:36.099Z,99167.91
2022-08-20T05:19:29.029Z,99159.19
2022-08-20T05:24:21.535Z,99162.81
2022-08-20T05:29:13.473Z,99163.94
2022-08-20T05:34:11.531Z,99164.00
2022-08-20T05:39:03.741Z,99168.69
2022-08-20T05:43:55.762Z,99164.88
2022-08-20T05:48:47.337Z,99172.53
2022-08-20T05:53:39.046Z,99160.28
2022-08-20T05:58:33.008Z,99155.38
2022-08-20T06:03:44.033Z,99156.22
2022-08-20T06:08:36.936Z,99154.38
2022-08-20T06:13:29.184Z,99155.91
2022-08-20T06:18:28.620Z,99162.81
2022-08-20T06:23:20.788Z,99154.69
2022-08-20T06:28:14.712Z,99152.03
2022-08-20T06:33:06.861Z,99155.66
2022-08-20T06:38:00.402Z,99160.88
2022-08-20T06:42:52.643Z,99154.44
2022-08-20T06:47:46.097Z,99139.34
2022-08-20T06:52:51.715Z,99143.50
2022-08-20T06:57:44.883Z,99160.97
2022-08-20T07:02:36.632Z,99147.91
2022-08-20T07:07:28.406Z,99152.41
2022-08-20T07:12:20.069Z,99165.38
2022-08-20T07:17:12.303Z,99179.91
2022-08-20T07:22:04.807Z,99174.41
2022-08-20T07:26:56.890Z,99187.91
2022-08-20T07:32:07.433Z,99171.22
2022-08-20T07:37:01.486Z,99184.91
2022-08-20T07:42:03.318Z,99193.31
2022-08-20T07:46:55.025Z,99183.19
2022-08-20T07:51:46.650Z,99171.97
2022-08-20T07:56:38.307Z,99182.03
2022-08-20T08:01:32.165Z,99184.00
2022-08-20T08:06:29.082Z,99174.06
2022-08-20T08:11:21.807Z,99173.66
2022-08-20T08:16:15.472Z,99182.03
2022-08-20T08:21:08.601Z,99178.38
2022-08-20T08:26:01.107Z,99175.94
2022-08-20T08:30:52.893Z,99170.31
2022-08-20T08:35:48.041Z,99184.72
2022-08-20T08:40:40.330Z,99180.63
2022-08-20T08:45:43.861Z,99173.03
2022-08-20T08:50:53.222Z,99172.66
2022-08-20T08:55:45.711Z,99175.09
2022-08-20T09:00:37.615Z,99182.25
2022-08-20T09:05:53.348Z,99166.72
2022-08-20T09:10:45.903Z,99173.25
2022-08-20T09:15:37.825Z,99178.38
2022-08-20T09:20:31.486Z,99159.47
2022-08-20T09:25:23.380Z,99169.66
2022-08-20T09:30:16.350Z,99176.41
2022-08-20T09:35:10.810Z,99162.72
2022-08-20T09:40:03.526Z,99175.31
2022-08-20T09:44:55.948Z,99171.78
2022-08-20T09:49:48.238Z,99161.09
2022-08-20T09:54:46.436Z,99159.94
2022-08-20T09:59:39.207Z,99161.88
2022-08-20T10:04:30.867Z,99161.19
2022-08-20T10:09:22.743Z,99146.22
2022-08-20T10:14:14.567Z,99150.63
2022-08-20T10:19:06.704Z,99158.94
2022-08-20T10:23:58.965Z,99152.13
2022-08-20T10:28:50.596Z,99155.25
2022-08-20T10:33:43.986Z,99164.53
2022-08-20T10:38:35.779Z,99164.22
2022-08-20T10:43:28.469Z,99159.59
2022-08-20T10:48:21.640Z,99165.28
2022-08-20T10:53:13.389Z,99146.28
2022-08-20T10:58:07.066Z,99167.00
2022-08-20T11:02:58.927Z,99168.56
2022-08-20T11:07:56.132Z,99167.25
2022-08-20T11:12:49.647Z,99166.06
2022-08-20T11:17:43.070Z,99156.59
2022-08-20T11:22:35.524Z,99158.94
2022-08-20T11:27:48.838Z,99155.53
2022-08-20T11:32:40.799Z,99160.59
2022-08-20T11:37:33.135Z,99165.94
2022-08-20T11:42:24.830Z,99153.13
2022-08-20T11:47:25.501Z,99140.09
2022-08-20T11:52:17.099Z,99142.81
2022-08-20T11:57:09.845Z,99139.38
2022-08-20T12:02:03.058Z,99142.47
2022-08-20T12:06:55.174Z,99136.59
2022-08-20T12:11:47.252Z,99122.56
2022-08-20T12:16:39.034Z,99138.78
2022-08-20T12:21:32.443Z,99147.75
2022-08-20T12:26:24.219Z,99145.44
2022-08-20T12:31:15.866Z,99128.97
2022-08-20T12:36:07.821Z,99127.19
2022-08-20T12:40:59.669Z,99111.19
2022-08-20T12:45:51.352Z,99115.25
2022-08-20T12:50:44.239Z,99117.41
2022-08-20T12:55:36.588Z,99110.06
2022-08-20T13:00:32.636Z,99116.41
2022-08-20T13:05:24.857Z,99098.94
2022-08-20T13:10:24.443Z,99103.31
2022-08-20T13:15:16.965Z,99107.69
2022-08-20T13:20:12.169Z,99116.16
2022-08-20T13:25:05.427Z,99094.25
2022-08-20T13:29:59.075Z,99094.88
2022-08-20T13:34:51.293Z,99102.34
2022-08-20T13:39:44.099Z,99116.31
2022-08-20T13:44:36.559Z,99111.75
2022-08-20T13:49:29.787Z,99107.34
2022-08-20T13:54:30.196Z,99114.88
2022-08-20T13:59:22.236Z,99100.09
2022-08-20T14:04:13.870Z,99097.66
2022-08-20T14:09:05.496Z,99099.94
2022-08-20T14:13:57.150Z,99101.59
2022-08-20T14:18:52.621Z,99108.09
2022-08-20T14:23:44.453Z,99097.84
2022-08-20T14:28:36.080Z,99096.31
2022-08-20T14:33:27.772Z,99097.91
2022-08-20T14:38:19.446Z,99083.25
2022-08-20T14:43:11.262Z,99086.25
2022-08-20T14:48:07.384Z,99095.25
2022-08-20T14:53:00.429Z,99089.03
2022-08-20T14:57:52.447Z,99091.47
2022-08-20T15:02:45.023Z,99085.56
2022-08-20T15:07:40.341Z,99079.81
2022-08-20T15:12:34.914Z,99086.03
2022-08-20T15:17:29.474Z,99082.25
2022-08-20T15:22:22.572Z,99072.44
2022-08-20T15:27:24.821Z,99080.88
2022-08-20T15:32:16.876Z,99078.19
2022-08-20T15:37:12.962Z,99078.25
2022-08-20T15:42:05.845Z,99073.84
2022-08-20T15:47:21.586Z,99078.41
2022-08-20T15:52:14.225Z,99079.97
2022-08-20T15:57:12.244Z,99072.13
2022-08-20T16:02:25.841Z,99079.53
2022-08-20T16:07:24.932Z,99065.78
2022-08-20T16:12:24.058Z,99062.66
2022-08-20T16:17:28.436Z,99051.72
2022-08-20T16:22:26.984Z,99057.38
2022-08-20T16:27:33.890Z,99055.88
2022-08-20T16:32:25.641Z,99054.13
2022-08-20T16:37:51.310Z,99051.28
2022-08-20T16:42:45.801Z,99052.63
2022-08-20T16:47:39.925Z,99049.16
2022-08-20T16:52:31.872Z,99053.91
2022-08-20T16:57:23.913Z,99061.56
2022-08-20T17:02:18.972Z,99053.97
2022-08-20T17:07:11.832Z,99051.13
2022-08-20T17:12:22.375Z,99055.63
2022-08-20T17:17:40.676Z,99060.06
2022-08-20T17:22:42.536Z,99060.78
2022-08-20T17:27:39.766Z,99062.00
2022-08-20T17:32:31.984Z,99049.38
2022-08-20T17:37:23.662Z,99048.41
2022-08-20T17:42:22.599Z,99045.97
2022-08-20T17:47:19.427Z,99046.03
2022-08-20T17:52:27.073Z,99051.78
2022-08-20T17:57:21.840Z,99046.44
2022-08-20T18:02:14.953Z,99042.38
2022-08-20T18:07:23.280Z,99049.91
2022-08-20T18:12:33.680Z,99044.50
2022-08-20T18:17:44.547Z,99052.47
2022-08-20T18:22:46.049Z,99055.09
2022-08-20T18:27:46.258Z,99048.22
2022-08-20T18:32:39.198Z,99054.13
2022-08-20T18:37:31.129Z,99050.44
2022-08-20T18:42:31.900Z,99047.50
2022-08-20T18:47:29.279Z,99058.25
2022-08-20T18:52:26.268Z,99043.38
2022-08-20T18:57:41.623Z,99051.56
2022-08-20T19:02:37.734Z,99053.13
2022-08-20T19:07:48.066Z,99064.06
2022-08-20T19:13:18.115Z,99041.84
2022-08-20T19:18:16.080Z,99052.75
2022-08-20T19:23:18.613Z,99057.63
2022-08-20T19:28:26.321Z,99059.19
2022-08-20T19:33:29.825Z,99055.13
2022-08-20T19:38:22.077Z,99062.16
2022-08-20T19:43:17.883Z,99055.59
2022-08-20T19:48:34.664Z,99051.78
2022-08-20T19:53:32.861Z,99055.94
2022-08-20T19:58:26.549Z,99056.00
2022-08-20T20:03:22.436Z,99057.94
2022-08-20T20:08:14.473Z,99059.06
2022-08-20T20:13:12.419Z,99069.28
2022-08-20T20:18:04.527Z,99066.09
2022-08-20T20:23:14.329Z,99065.03
2022-08-20T20:28:42.290Z,99065.91
2022-08-20T20:33:43.948Z,99059.38
2022-08-20T20:38:39.866Z,99065.75
2022-08-20T20:43:39.282Z,99059.50
2022-08-20T20:48:47.931Z,99066.44
2022-08-20T20:53:51.568Z,99056.38
2022-08-20T20:58:53.851Z,99064.06
2022-08-20T21:03:48.016Z,99069.06
2022-08-20T21:08:41.135Z,99065.84
2022-08-20T21:13:32.852Z,99063.66
2022-08-20T21:18:25.866Z,99065.06
2022-08-20T21:23:18.766Z,99068.66
2022-08-20T21:28:32.386Z,99059.91
2022-08-20T21:33:24.032Z,99065.13
2022-08-20T21:38:16.024Z,99063.53
2022-08-20T21:43:08.246Z,99071.19
2022-08-20T21:48:00.954Z,99068.75
2022-08-20T21:52:59.466Z,99061.31
2022-08-20T21:57:51.888Z,99046.00
2022-08-20T22:02:43.534Z,99056.38
2022-08-20T22:07:35.304Z,99055.03
2022-08-20T22:12:27.097Z,99059.97
2022-08-20T22:17:19.582Z,99059.97
2022-08-20T22:22:13.200Z,99060.78
2022-08-20T22:27:06.622Z,99051.75
2022-08-20T22:31:58.873Z,99038.88
2022-08-20T22:36:53.903Z,99046.56
2022-08-20T22:41:45.594Z,99043.25
2022-08-20T22:46:46.381Z,99045.41
2022-08-20T22:51:42.269Z,99046.50
2022-08-20T22:56:34.062Z,99042.13
2022-08-20T23:01:27.551Z,99040.47
2022-08-20T23:06:19.554Z,99063.47
2022-08-20T23:11:11.659Z,99063.44
2022-08-20T23:16:05.502Z,99050.84
2022-08-20T23:20:58.996Z,99051.91
2022-08-20T23:25:51.245Z,99053.56
2022-08-20T23:30:42.862Z,99033.56
2022-08-20T23:35:37.778Z,99038.75
2022-08-20T23:40:30.116Z,99050.22
2022-08-20T23:45:21.902Z,99048.00
2022-08-20T23:50:16.568Z,99045.53
2022-08-20T23:55:08.642Z,99027.75
